Time;durP1;ratioP1;P1;durP2;ratioP2;P2;SDS_P1;SDS_P2;PMS_P1;PMS_P2;Temp;Humidity;BMP_temperature;BMP_pressure;BME280_temperature;BME280_humidity;BME280_pressure;Samples;Min_cycle;Max_cycle;Signal;HPM_P1;HPM_P2
2023/07/24 00:01:23;;;;;;;4.10;3.67;;;26.50;41.60;;;;;;5049524;28;20049;-78
2023/07/24 00:03:49;;;;;;;5.10;3.65;;;26.40;41.20;;;;;;5033850;28;20037;-78
2023/07/24 00:06:15;;;;;;;5.32;3.40;;;26.40;40.50;;;;;;5033920;28;20021;-78
2023/07/24 00:08:41;;;;;;;6.93;4.15;;;26.50;40.70;;;;;;5032554;28;20045;-78
2023/07/24 00:11:10;;;;;;;5.55;3.53;;;26.30;40.50;;;;;;5032436;28;20030;-78
2023/07/24 00:13:36;;;;;;;4.93;3.42;;;26.40;40.90;;;;;;5032497;28;20045;-78
2023/07/24 00:16:07;;;;;;;4.38;3.47;;;26.50;40.90;;;;;;5033553;28;20029;-78
2023/07/24 00:18:33;;;;;;;4.97;3.55;;;26.50;41.60;;;;;;5033899;28;20041;-78
2023/07/24 00:20:59;;;;;;;5.60;3.65;;;26.50;41.70;;;;;;5033763;28;20029;-78
2023/07/24 00:23:25;;;;;;;3.92;3.45;;;26.60;41.80;;;;;;5033794;28;20048;-77
2023/07/24 00:25:51;;;;;;;5.03;4.22;;;26.60;42.00;;;;;;5033529;28;20036;-78
2023/07/24 00:28:17;;;;;;;4.13;3.72;;;26.40;42.00;;;;;;5033391;28;20021;-78
2023/07/24 00:30:43;;;;;;;3.67;3.35;;;26.60;41.90;;;;;;5033534;28;20037;-77
2023/07/24 00:33:09;;;;;;;6.22;3.88;;;26.60;42.20;;;;;;5033207;28;20497;-78
2023/07/24 00:35:35;;;;;;;4.82;3.88;;;26.50;42.30;;;;;;5048928;28;20055;-77
2023/07/24 00:38:01;;;;;;;4.93;3.47;;;26.70;42.20;;;;;;5033346;28;20022;-78
2023/07/24 00:40:27;;;;;;;6.90;3.50;;;26.60;41.50;;;;;;5032236;28;20045;-78
2023/07/24 00:42:53;;;;;;;3.90;3.50;;;26.60;41.10;;;;;;5048562;28;20116;-78
2023/07/24 00:45:21;;;;;;;8.02;3.13;;;26.60;41.00;;;;;;5048551;28;20132;-77
2023/07/24 00:47:47;;;;;;;7.50;3.70;;;26.50;41.60;;;;;;5032050;28;20033;-77
2023/07/24 00:50:13;;;;;;;4.88;3.47;;;26.50;42.00;;;;;;5033417;28;20045;-77
2023/07/24 00:52:40;;;;;;;7.20;3.88;;;26.50;41.70;;;;;;5031864;28;20448;-78
2023/07/24 00:55:07;;;;;;;6.78;4.00;;;26.50;42.10;;;;;;5031921;28;20029;-78
2023/07/24 00:57:33;;;;;;;5.53;3.90;;;26.50;42.40;;;;;;5033072;28;20076;-78
2023/07/24 00:59:59;;;;;;;3.90;3.50;;;26.50;42.50;;;;;;5048152;28;20441;-77
2023/07/24 01:02:26;;;;;;;5.43;4.13;;;26.50;42.70;;;;;;5032941;28;20076;-78
2023/07/24 01:04:52;;;;;;;5.20;4.05;;;26.50;42.70;;;;;;5032833;28;20034;-78
2023/07/24 01:07:20;;;;;;;5.22;4.18;;;26.50;42.80;;;;;;5047092;28;20046;-78
2023/07/24 01:09:47;;;;;;;9.32;4.22;;;26.50;42.60;;;;;;5032843;28;20048;-77
2023/07/24 01:12:33;;;;;;;4.80;3.75;;;26.40;42.20;;;;;;5032930;28;20114;-78
2023/07/24 01:15:04;;;;;;;5.10;3.63;;;26.40;41.80;;;;;;5031497;28;20060;-77
2023/07/24 01:17:32;;;;;;;4.50;3.72;;;26.50;41.70;;;;;;5031202;28;20404;-78
2023/07/24 01:19:59;;;;;;;5.80;3.60;;;26.40;42.00;;;;;;5032280;28;20033;-77
2023/07/24 01:22:28;;;;;;;4.57;3.78;;;26.50;42.20;;;;;;5032501;28;20034;-78
2023/07/24 01:25:09;;;;;;;4.22;3.75;;;26.40;42.40;;;;;;5032195;28;20038;-77
2023/07/24 01:27:35;;;;;;;6.47;4.40;;;26.50;42.50;;;;;;5032396;28;20103;-77
2023/07/24 01:30:01;;;;;;;11.80;4.07;;;26.50;42.90;;;;;;5032572;28;20481;-78
2023/07/24 01:32:28;;;;;;;5.43;3.83;;;26.50;43.00;;;;;;5031285;28;20076;-77
2023/07/24 01:34:54;;;;;;;5.95;3.75;;;26.60;43.20;;;;;;5032590;28;20504;-78
2023/07/24 01:37:22;;;;;;;8.15;4.10;;;26.70;43.30;;;;;;5030759;28;20030;-77
2023/07/24 01:39:49;;;;;;;6.00;4.13;;;26.60;43.30;;;;;;5049494;28;20207;-78
2023/07/24 01:42:16;;;;;;;7.60;4.53;;;26.70;43.30;;;;;;5033166;28;20078;-77
2023/07/24 01:44:41;;;;;;;4.43;3.67;;;26.50;43.50;;;;;;5049250;28;20071;-77
2023/07/24 01:47:07;;;;;;;7.50;4.10;;;26.60;43.60;;;;;;5049235;28;20040;-76
2023/07/24 01:49:34;;;;;;;5.20;3.78;;;26.60;42.90;;;;;;5049644;28;20496;-78
2023/07/24 01:52:00;;;;;;;5.07;3.65;;;26.50;42.30;;;;;;5048998;28;20531;-77
2023/07/24 01:54:25;;;;;;;9.73;4.20;;;26.50;42.00;;;;;;5049492;28;20451;-78
2023/07/24 01:56:52;;;;;;;4.35;3.88;;;26.60;42.00;;;;;;5032579;28;20060;-78
2023/07/24 01:59:18;;;;;;;4.90;3.83;;;26.50;42.10;;;;;;5032664;28;20049;-77
2023/07/24 02:01:44;;;;;;;5.18;3.53;;;26.50;42.20;;;;;;5032838;28;20583;-77
2023/07/24 02:04:10;;;;;;;5.93;4.05;;;26.60;42.30;;;;;;5032729;28;20120;-78
2023/07/24 02:06:36;;;;;;;5.72;3.30;;;26.50;42.30;;;;;;5049132;28;20135;-78
2023/07/24 02:09:02;;;;;;;6.35;4.28;;;26.50;42.30;;;;;;5049030;28;20124;-77
2023/07/24 02:11:28;;;;;;;10.95;3.67;;;26.40;42.50;;;;;;5030008;28;20049;-77
2023/07/24 02:13:54;;;;;;;5.97;4.13;;;26.40;42.50;;;;;;5047099;28;20053;-78
2023/07/24 02:16:20;;;;;;;8.57;3.95;;;26.40;42.50;;;;;;5030444;28;20037;-78
2023/07/24 02:18:46;;;;;;;9.05;4.05;;;26.40;42.70;;;;;;5013586;28;20124;-78
2023/07/24 02:21:13;;;;;;;8.30;3.92;;;26.50;42.50;;;;;;5031517;28;20454;-78
2023/07/24 02:23:39;;;;;;;7.32;3.72;;;26.50;42.50;;;;;;5030121;28;20120;-77
2023/07/24 02:26:05;;;;;;;5.80;3.88;;;26.50;42.80;;;;;;5031687;28;20047;-78
2023/07/24 02:28:34;;;;;;;6.22;3.75;;;26.40;43.20;;;;;;5014014;28;20045;-77
2023/07/24 02:31:00;;;;;;;5.45;3.88;;;26.60;43.20;;;;;;5031240;28;20045;-77
2023/07/24 02:33:26;;;;;;;5.47;3.55;;;26.60;43.30;;;;;;5046822;28;20041;-77
2023/07/24 02:35:52;;;;;;;8.95;4.03;;;26.50;43.50;;;;;;5046725;28;20045;-78
2023/07/24 02:38:19;;;;;;;5.25;4.10;;;26.50;43.80;;;;;;5046583;28;20477;-77
2023/07/24 02:40:45;;;;;;;5.88;3.53;;;26.60;43.90;;;;;;5028921;28;20133;-77
2023/07/24 02:43:11;;;;;;;4.28;3.85;;;26.50;44.00;;;;;;5028998;28;20049;-78
2023/07/24 02:45:38;;;;;;;6.90;4.32;;;26.50;44.10;;;;;;5045044;28;20050;-78
2023/07/24 02:48:05;;;;;;;4.63;4.20;;;26.60;44.30;;;;;;5028822;28;20523;-77
2023/07/24 02:50:32;;;;;;;8.00;3.65;;;26.40;44.30;;;;;;5028854;28;20172;-77
2023/07/24 02:52:58;;;;;;;4.90;3.88;;;26.50;44.40;;;;;;5028713;28;20504;-78
2023/07/24 02:55:24;;;;;;;5.80;4.25;;;26.50;44.20;;;;;;5028867;28;20148;-77
2023/07/24 02:57:50;;;;;;;4.88;3.85;;;26.50;44.30;;;;;;5046936;28;20048;-77
2023/07/24 03:00:16;;;;;;;7.57;4.65;;;26.60;43.80;;;;;;5033014;28;20038;-78
2023/07/24 03:02:43;;;;;;;5.20;4.07;;;26.60;43.50;;;;;;5016159;28;20114;-77
2023/07/24 03:05:09;;;;;;;7.70;4.50;;;26.70;43.20;;;;;;5049498;28;20046;-78
2023/07/24 03:07:35;;;;;;;5.78;3.90;;;26.50;43.10;;;;;;5032531;28;20037;-78
2023/07/24 03:10:02;;;;;;;7.68;4.97;;;26.50;43.20;;;;;;5032574;28;20049;-77
2023/07/24 03:12:30;;;;;;;5.68;4.18;;;26.50;43.20;;;;;;5032287;28;20080;-77
2023/07/24 03:14:56;;;;;;;4.93;4.43;;;26.50;43.30;;;;;;5049217;28;20087;-78
2023/07/24 03:17:23;;;;;;;7.60;4.05;;;26.60;43.30;;;;;;5051836;28;20128;-77
2023/07/24 03:19:49;;;;;;;6.03;4.53;;;26.50;43.40;;;;;;5019104;28;20049;-78
2023/07/24 03:22:15;;;;;;;7.55;4.68;;;26.40;43.40;;;;;;5035655;28;20049;-77
2023/07/24 03:24:41;;;;;;;7.97;4.45;;;26.50;43.50;;;;;;5052184;28;20119;-77
2023/07/24 03:27:07;;;;;;;6.75;3.78;;;26.40;43.60;;;;;;5052327;28;20029;-77
2023/07/24 03:29:33;;;;;;;9.65;4.10;;;26.40;43.70;;;;;;5051952;28;20555;-78
2023/07/24 03:31:59;;;;;;;6.93;4.50;;;26.50;43.50;;;;;;5052199;28;20430;-77
2023/07/24 03:34:25;;;;;;;4.43;3.83;;;26.60;43.60;;;;;;5052052;28;20041;-77
2023/07/24 03:36:51;;;;;;;11.32;4.60;;;26.50;44.00;;;;;;5035557;28;20091;-78
2023/07/24 03:39:18;;;;;;;7.10;3.67;;;26.50;43.80;;;;;;5052047;28;20069;-77
2023/07/24 03:41:44;;;;;;;6.28;4.47;;;26.50;43.80;;;;;;5035322;28;20060;-77
2023/07/24 03:44:10;;;;;;;6.30;4.18;;;26.50;44.10;;;;;;5034907;28;20045;-78
2023/07/24 03:46:36;;;;;;;8.50;4.68;;;26.60;44.40;;;;;;5035117;28;20038;-78
2023/07/24 03:49:02;;;;;;;6.85;4.57;;;26.60;44.30;;;;;;5051707;28;20044;-77
2023/07/24 03:51:28;;;;;;;5.05;3.88;;;26.60;44.70;;;;;;5051553;28;20048;-77
2023/07/24 03:53:54;;;;;;;7.43;3.90;;;26.70;44.90;;;;;;5049366;28;20582;-78
2023/07/24 03:56:20;;;;;;;8.50;4.47;;;26.60;44.70;;;;;;5034025;28;20044;-78
2023/07/24 03:58:46;;;;;;;7.18;4.43;;;26.60;44.80;;;;;;5034084;28;20033;-77
2023/07/24 04:01:11;;;;;;;6.90;4.05;;;26.70;44.70;;;;;;5033981;28;20405;-78
2023/07/24 04:03:38;;;;;;;4.90;3.85;;;26.70;45.00;;;;;;5033130;28;20103;-77
2023/07/24 04:06:04;;;;;;;7.00;3.92;;;26.70;44.80;;;;;;5032862;28;20496;-77
2023/07/24 04:08:30;;;;;;;5.93;4.05;;;26.70;44.60;;;;;;5031994;28;20029;-77
2023/07/24 04:10:56;;;;;;;7.43;4.00;;;26.80;43.90;;;;;;5034028;28;20443;-77
2023/07/24 04:13:22;;;;;;;4.57;4.00;;;26.80;43.80;;;;;;5033905;28;20489;-78
2023/07/24 04:15:48;;;;;;;6.88;4.22;;;26.70;43.80;;;;;;5033763;28;20037;-77
2023/07/24 04:18:14;;;;;;;8.68;4.40;;;26.80;43.80;;;;;;5033538;28;20041;-78
2023/07/24 04:20:40;;;;;;;12.27;4.40;;;26.70;44.30;;;;;;5033797;28;20037;-78
2023/07/24 04:23:06;;;;;;;7.18;4.60;;;26.70;44.60;;;;;;5033821;28;20167;-78
2023/07/24 04:25:32;;;;;;;8.18;4.40;;;26.70;44.80;;;;;;5033684;28;20104;-78
2023/07/24 04:27:58;;;;;;;7.05;5.03;;;26.60;45.10;;;;;;5033637;28;20037;-77
2023/07/24 04:30:24;;;;;;;11.45;4.22;;;26.60;45.00;;;;;;5033495;28;20037;-78
2023/07/24 04:32:50;;;;;;;7.32;4.75;;;26.70;44.90;;;;;;5032524;28;20045;-77
2023/07/24 04:35:16;;;;;;;7.30;4.72;;;26.70;44.50;;;;;;5033631;28;20106;-78
2023/07/24 04:37:42;;;;;;;7.90;5.13;;;26.70;44.30;;;;;;5033547;28;20040;-77
2023/07/24 04:40:09;;;;;;;6.68;4.68;;;26.70;44.30;;;;;;5048870;28;20022;-77
2023/07/24 04:42:35;;;;;;;6.22;4.45;;;26.70;44.50;;;;;;5033595;28;20120;-77
2023/07/24 04:45:01;;;;;;;10.68;5.32;;;26.70;45.40;;;;;;5033168;28;20124;-78
2023/07/24 04:47:27;;;;;;;6.25;4.35;;;26.70;45.70;;;;;;5033501;28;20493;-78
2023/07/24 04:49:53;;;;;;;8.77;5.47;;;26.60;45.60;;;;;;5033176;28;20033;-77
2023/07/24 04:52:19;;;;;;;5.88;5.28;;;26.70;46.00;;;;;;5033157;28;20037;-77
2023/07/24 04:54:45;;;;;;;7.15;4.70;;;26.70;46.70;;;;;;5033238;28;20052;-77
2023/07/24 04:57:11;;;;;;;9.82;5.60;;;26.90;46.30;;;;;;5033135;28;20461;-78
2023/07/24 04:59:37;;;;;;;9.05;5.60;;;26.80;45.90;;;;;;5047229;28;20056;-78
2023/07/24 05:02:03;;;;;;;7.32;5.13;;;26.70;46.10;;;;;;5031713;28;20026;-75
2023/07/24 05:04:29;;;;;;;8.05;5.85;;;26.80;46.10;;;;;;5048194;28;20041;-77
2023/07/24 05:06:55;;;;;;;7.60;5.20;;;26.70;45.80;;;;;;5032857;28;20025;-78
2023/07/24 05:09:21;;;;;;;6.53;4.97;;;26.80;45.50;;;;;;5033051;28;20550;-77
2023/07/24 05:11:46;;;;;;;6.22;4.90;;;26.90;45.00;;;;;;5032752;28;20161;-77
2023/07/24 05:14:12;;;;;;;7.13;4.97;;;26.80;44.90;;;;;;5032625;28;20053;-77
2023/07/24 05:16:38;;;;;;;8.88;5.10;;;26.80;44.30;;;;;;5032921;28;20133;-76
2023/07/24 05:19:04;;;;;;;6.97;5.75;;;26.90;44.70;;;;;;5031341;28;20468;-77
2023/07/24 05:21:30;;;;;;;8.82;5.03;;;26.90;45.70;;;;;;5031966;28;20037;-77
2023/07/24 05:23:56;;;;;;;8.70;5.40;;;26.90;44.70;;;;;;5032506;28;20072;-77
2023/07/24 05:26:22;;;;;;;7.40;4.40;;;26.90;44.40;;;;;;5032656;28;20038;-77
2023/07/24 05:28:48;;;;;;;11.88;5.32;;;26.80;44.40;;;;;;5030973;28;20034;-77
2023/07/24 05:31:14;;;;;;;6.68;5.45;;;26.80;44.40;;;;;;5032635;28;20036;-78
2023/07/24 05:33:40;;;;;;;9.75;5.05;;;26.90;44.50;;;;;;5032723;28;20082;-77
2023/07/24 05:36:06;;;;;;;8.68;5.30;;;26.90;44.50;;;;;;5032579;28;20025;-78
2023/07/24 05:38:32;;;;;;;6.53;4.63;;;26.70;44.60;;;;;;5032278;28;20461;-77
2023/07/24 05:41:00;;;;;;;6.97;5.18;;;26.90;44.60;;;;;;5032097;28;20166;-77
2023/07/24 05:43:27;;;;;;;7.63;5.47;;;26.80;44.60;;;;;;5030918;28;20037;-77
2023/07/24 05:45:54;;;;;;;12.50;6.07;;;26.70;44.70;;;;;;5032221;28;20045;-77
2023/07/24 05:48:20;;;;;;;6.25;4.65;;;26.80;44.70;;;;;;5032108;28;20069;-77
2023/07/24 05:50:47;;;;;;;8.38;4.70;;;26.60;44.70;;;;;;5031963;28;20033;-77
2023/07/24 05:53:13;;;;;;;6.38;5.03;;;26.70;44.70;;;;;;5030984;28;20026;-77
2023/07/24 05:55:39;;;;;;;13.73;4.78;;;26.70;44.70;;;;;;5031975;28;20022;-77
2023/07/24 05:58:05;;;;;;;7.13;4.80;;;26.90;44.80;;;;;;5032495;28;20037;-77
2023/07/24 06:00:31;;;;;;;7.20;4.32;;;26.80;44.70;;;;;;5032153;28;20021;-78
2023/07/24 06:02:57;;;;;;;9.60;5.78;;;26.70;44.70;;;;;;5031737;28;20034;-78
2023/07/24 06:05:23;;;;;;;7.50;4.50;;;26.70;44.60;;;;;;5031997;28;20073;-78
2023/07/24 06:07:49;;;;;;;6.57;4.38;;;26.80;44.90;;;;;;5031810;28;20033;-78
2023/07/24 06:10:15;;;;;;;5.88;4.70;;;26.90;45.20;;;;;;5046831;28;20042;-78
2023/07/24 06:12:41;;;;;;;6.28;4.55;;;27.00;45.60;;;;;;5031776;28;20112;-78
2023/07/24 06:15:07;;;;;;;5.60;4.40;;;27.00;45.70;;;;;;5031861;28;20124;-78
2023/07/24 06:17:34;;;;;;;8.07;4.53;;;26.90;45.00;;;;;;5031656;28;20030;-77
2023/07/24 06:20:00;;;;;;;5.07;4.32;;;26.90;45.00;;;;;;5031763;28;20034;-77
2023/07/24 06:22:26;;;;;;;7.13;5.07;;;27.00;45.00;;;;;;5031537;28;20505;-77
2023/07/24 06:24:51;;;;;;;6.03;4.88;;;27.00;45.40;;;;;;5031512;28;20131;-77
2023/07/24 06:27:17;;;;;;;9.07;4.60;;;26.90;44.60;;;;;;5031889;28;20046;-78
2023/07/24 06:29:43;;;;;;;7.05;4.38;;;26.90;44.50;;;;;;5030147;28;20040;-78
2023/07/24 06:32:09;;;;;;;6.13;4.55;;;27.10;45.50;;;;;;5030013;28;20037;-77
2023/07/24 06:34:35;;;;;;;7.10;5.10;;;27.00;45.20;;;;;;5031274;28;20044;-77
2023/07/24 06:37:01;;;;;;;5.95;4.28;;;27.00;45.00;;;;;;5046887;28;20032;-77
2023/07/24 06:39:28;;;;;;;5.80;4.50;;;26.90;44.50;;;;;;5031032;28;20045;-78
2023/07/24 06:41:55;;;;;;;9.32;5.63;;;26.90;44.80;;;;;;5031578;28;20045;-77
2023/07/24 06:44:21;;;;;;;7.97;4.85;;;26.80;44.60;;;;;;5031434;28;20050;-78
2023/07/24 06:46:47;;;;;;;7.70;3.70;;;26.90;44.60;;;;;;5031335;28;20046;-78
2023/07/24 06:49:13;;;;;;;9.48;4.53;;;27.00;45.30;;;;;;5031411;28;20034;-77
2023/07/24 06:51:39;;;;;;;5.20;3.95;;;26.80;44.80;;;;;;5031271;28;20389;-78
2023/07/24 06:54:05;;;;;;;4.57;3.33;;;26.80;44.80;;;;;;5031254;28;20063;-78
2023/07/24 06:56:32;;;;;;;2.00;1.77;;;26.90;44.80;;;;;;5031450;28;20033;-78
2023/07/24 06:58:58;;;;;;;5.95;3.42;;;26.80;44.80;;;;;;5031248;28;20087;-77
2023/07/24 07:01:24;;;;;;;2.10;1.90;;;26.80;44.80;;;;;;5030163;28;20068;-78
2023/07/24 07:03:50;;;;;;;1.33;1.23;;;26.70;44.90;;;;;;5031066;28;20037;-78
2023/07/24 07:06:16;;;;;;;2.08;1.45;;;26.70;44.90;;;;;;5031104;28;20469;-78
2023/07/24 07:08:42;;;;;;;6.82;3.92;;;26.70;44.90;;;;;;5030980;28;20572;-78
2023/07/24 07:11:08;;;;;;;8.68;3.58;;;26.80;44.90;;;;;;5031083;28;20083;-77
2023/07/24 07:13:34;;;;;;;6.03;4.40;;;26.80;44.90;;;;;;5031011;28;20107;-78
2023/07/24 07:16:01;;;;;;;5.82;4.82;;;26.80;45.00;;;;;;5031093;28;20021;-78
2023/07/24 07:18:27;;;;;;;5.22;3.72;;;26.80;45.00;;;;;;5031380;28;20021;-77
2023/07/24 07:20:53;;;;;;;1.80;1.70;;;26.90;45.00;;;;;;5030865;28;20095;-77
2023/07/24 07:23:20;;;;;;;5.25;3.58;;;26.80;44.80;;;;;;5031026;28;20424;-78
2023/07/24 07:25:47;;;;;;;1.95;1.73;;;26.90;44.70;;;;;;5031236;28;20034;-78
2023/07/24 07:28:14;;;;;;;1.35;1.25;;;27.00;45.30;;;;;;5028955;28;20424;-77
2023/07/24 07:30:41;;;;;;;5.30;4.13;;;27.00;45.30;;;;;;5030771;28;20052;-77
2023/07/24 07:33:07;;;;;;;9.18;5.78;;;27.00;45.80;;;;;;5031237;28;20072;-77
2023/07/24 07:35:34;;;;;;;5.38;4.35;;;27.00;45.20;;;;;;5030665;28;20098;-78
2023/07/24 07:38:01;;;;;;;3.17;2.88;;;27.00;45.30;;;;;;5030802;28;20040;-78
2023/07/24 07:40:27;;;;;;;1.55;1.45;;;27.00;45.20;;;;;;5044899;28;20046;-77
2023/07/24 07:42:53;;;;;;;3.85;3.45;;;26.90;44.70;;;;;;5046215;28;20034;-78
2023/07/24 07:45:20;;;;;;;1.58;1.48;;;27.30;46.00;;;;;;5033157;28;20053;-77
2023/07/24 07:47:46;;;;;;;3.15;2.30;;;26.90;44.70;;;;;;5034475;28;20373;-77
2023/07/24 07:50:12;;;;;;;1.42;1.30;;;26.90;44.80;;;;;;5034154;28;20119;-78
2023/07/24 07:52:38;;;;;;;1.77;1.40;;;26.90;44.90;;;;;;5034570;28;20524;-77
2023/07/24 07:55:08;;;;;;;2.28;2.03;;;26.80;45.00;;;;;;5034626;28;20389;-78
2023/07/24 07:57:37;;;;;;;6.50;4.25;;;26.90;45.00;;;;;;5034177;28;20041;-77
2023/07/24 08:00:05;;;;;;;5.88;4.18;;;26.80;45.10;;;;;;5034466;28;20026;-78
2023/07/24 08:02:33;;;;;;;2.38;1.83;;;26.80;45.10;;;;;;5032876;28;20037;-77
2023/07/24 08:05:00;;;;;;;1.52;1.42;;;26.80;45.20;;;;;;5034085;28;20125;-78
2023/07/24 08:07:26;;;;;;;1.95;1.70;;;26.90;45.20;;;;;;5034315;28;20389;-77
2023/07/24 08:09:52;;;;;;;4.40;3.67;;;26.90;45.20;;;;;;5031161;28;20041;-78
2023/07/24 08:12:18;;;;;;;6.10;4.10;;;26.90;45.20;;;;;;5031494;28;20061;-77
2023/07/24 08:14:44;;;;;;;2.63;2.20;;;26.90;45.30;;;;;;5015102;28;20476;-78
2023/07/24 08:17:09;;;;;;;3.58;2.83;;;26.80;45.20;;;;;;5031694;28;20144;-77
2023/07/24 08:19:35;;;;;;;3.05;2.25;;;26.90;45.20;;;;;;5031124;28;20183;-78
2023/07/24 08:22:01;;;;;;;1.27;1.17;;;26.80;45.10;;;;;;5031319;28;20124;-77
2023/07/24 08:24:27;;;;;;;1.63;1.40;;;27.00;45.70;;;;;;5031333;28;20045;-78
2023/07/24 08:26:53;;;;;;;2.50;2.22;;;26.90;45.10;;;;;;5031242;28;20038;-78
2023/07/24 08:29:20;;;;;;;1.63;1.30;;;27.00;45.60;;;;;;5031066;28;20081;-76
2023/07/24 08:31:45;;;;;;;4.95;3.45;;;27.10;45.60;;;;;;5031026;28;20045;-77
2023/07/24 08:34:11;;;;;;;5.10;3.35;;;27.00;45.50;;;;;;5031042;28;20041;-78
2023/07/24 08:36:37;;;;;;;4.95;3.10;;;27.00;45.60;;;;;;5031172;28;20139;-78
2023/07/24 08:39:03;;;;;;;4.00;3.60;;;27.10;45.30;;;;;;5014745;28;20486;-77
2023/07/24 08:41:32;;;;;;;5.35;3.42;;;27.10;45.50;;;;;;5032654;28;20413;-78
2023/07/24 08:43:58;;;;;;;3.72;3.08;;;27.00;45.60;;;;;;5030760;28;20464;-77
2023/07/24 08:46:25;;;;;;;3.08;2.80;;;27.10;45.60;;;;;;5030887;28;20053;-77
2023/07/24 08:48:52;;;;;;;2.03;1.83;;;27.00;45.50;;;;;;5030948;28;20087;-77
2023/07/24 08:51:24;;;;;;;3.53;2.42;;;27.00;45.60;;;;;;5030604;28;20033;-77
2023/07/24 08:53:50;;;;;;;4.50;3.38;;;27.20;45.60;;;;;;5030893;28;20038;-78
2023/07/24 08:56:17;;;;;;;5.22;3.65;;;27.10;45.70;;;;;;5030607;28;20056;-77
2023/07/24 08:58:43;;;;;;;2.95;2.53;;;27.00;45.90;;;;;;5030770;28;20033;-77
2023/07/24 09:01:09;;;;;;;1.65;1.55;;;26.90;45.40;;;;;;5030413;28;20172;-77
2023/07/24 09:03:35;;;;;;;2.90;2.35;;;27.00;46.00;;;;;;5030945;28;20460;-77
2023/07/24 09:06:03;;;;;;;2.38;1.75;;;26.80;45.40;;;;;;5030788;28;20045;-78
2023/07/24 09:08:36;;;;;;;5.28;3.03;;;26.80;45.50;;;;;;5013861;28;20072;-77
2023/07/24 09:11:04;;;;;;;1.42;1.33;;;26.90;45.50;;;;;;5030240;28;20053;-78
2023/07/24 09:13:31;;;;;;;1.80;1.40;;;26.80;45.50;;;;;;5030341;28;20045;-77
2023/07/24 09:15:57;;;;;;;2.08;1.77;;;26.80;45.60;;;;;;5030277;28;20052;-78
2023/07/24 09:18:23;;;;;;;1.15;1.05;;;27.00;46.10;;;;;;5030191;28;20044;-78
2023/07/24 09:20:49;;;;;;;4.18;2.63;;;26.80;45.60;;;;;;5030370;28;20068;-78
2023/07/24 09:23:25;;;;;;;1.77;1.67;;;26.80;45.50;;;;;;5032530;28;20037;-78
2023/07/24 09:25:51;;;;;;;1.55;1.40;;;26.80;45.60;;;;;;5031229;28;20036;-78
2023/07/24 09:28:17;;;;;;;1.27;1.17;;;26.90;45.50;;;;;;5032331;28;20041;-78
2023/07/24 09:30:55;;;;;;;3.50;2.80;;;27.10;46.00;;;;;;5031146;28;20037;-77
2023/07/24 09:33:38;;;;;;;2.65;2.20;;;26.90;45.40;;;;;;5032625;28;20049;-77
2023/07/24 09:36:09;;;;;;;1.38;1.27;;;27.10;46.00;;;;;;5047822;28;20170;-77
2023/07/24 09:38:36;;;;;;;3.50;2.42;;;27.00;45.90;;;;;;5032334;28;20116;-78
2023/07/24 09:41:03;;;;;;;3.70;3.13;;;27.20;45.80;;;;;;5032141;28;20063;-78
2023/07/24 09:43:30;;;;;;;1.40;1.30;;;27.10;46.00;;;;;;5032449;28;20037;-77
2023/07/24 09:45:57;;;;;;;6.00;3.25;;;27.10;46.00;;;;;;5031037;28;20053;-77
2023/07/24 09:48:25;;;;;;;2.78;2.20;;;27.20;45.70;;;;;;5032182;28;20041;-78
2023/07/24 09:50:57;;;;;;;1.50;1.40;;;27.20;46.00;;;;;;5031993;28;20182;-77
2023/07/24 09:53:43;;;;;;;1.23;1.13;;;27.10;46.00;;;;;;5031778;28;20069;-78
2023/07/24 09:56:10;;;;;;;1.30;1.20;;;27.10;46.00;;;;;;5032101;28;20052;-78
2023/07/24 09:58:38;;;;;;;1.65;1.35;;;27.00;46.00;;;;;;5030858;28;20041;-78
2023/07/24 10:01:07;;;;;;;1.58;1.48;;;27.10;45.90;;;;;;5031868;28;20557;-77
2023/07/24 10:03:47;;;;;;;2.70;2.42;;;27.10;46.00;;;;;;5046917;28;20396;-77
2023/07/24 10:06:14;;;;;;;2.85;2.25;;;27.20;46.00;;;;;;5029132;28;20071;-77
2023/07/24 10:08:41;;;;;;;3.95;2.22;;;27.10;46.10;;;;;;5012854;28;20051;-77
2023/07/24 10:11:09;;;;;;;3.80;2.63;;;27.00;46.10;;;;;;5028971;28;20600;-77
2023/07/24 10:13:36;;;;;;;2.92;1.42;;;27.10;46.20;;;;;;5029080;28;20438;-77
2023/07/24 10:16:06;;;;;;;2.65;1.50;;;26.90;45.60;;;;;;5029152;28;20457;-77
2023/07/24 10:18:34;;;;;;;1.38;1.27;;;27.00;46.30;;;;;;5029311;28;20029;-77
2023/07/24 10:21:03;;;;;;;1.30;1.20;;;26.90;45.70;;;;;;5029069;28;20112;-77
2023/07/24 10:23:29;;;;;;;4.18;2.67;;;26.90;45.80;;;;;;5029150;28;20156;-77
2023/07/24 10:25:55;;;;;;;4.05;2.85;;;26.90;45.80;;;;;;5028811;28;20041;-77
2023/07/24 10:28:34;;;;;;;2.08;1.85;;;26.90;45.80;;;;;;5028996;28;20049;-77
2023/07/24 10:31:01;;;;;;;3.53;2.72;;;26.90;45.90;;;;;;5028686;28;20485;-77
2023/07/24 10:33:31;;;;;;;3.72;3.28;;;27.00;46.50;;;;;;5029138;28;20044;-77
2023/07/24 10:36:10;;;;;;;2.28;2.08;;;26.90;45.70;;;;;;5028859;28;20052;-77
2023/07/24 10:38:39;;;;;;;5.00;3.25;;;27.10;46.40;;;;;;5031352;28;20485;-77
2023/07/24 10:41:07;;;;;;;1.35;1.25;;;26.90;45.60;;;;;;5030929;28;20087;-77
2023/07/24 10:43:47;;;;;;;4.15;2.88;;;27.10;46.20;;;;;;5031480;28;20168;-77
2023/07/24 10:46:15;;;;;;;4.70;2.97;;;27.00;45.90;;;;;;5029900;28;20061;-77
2023/07/24 10:48:46;;;;;;;4.78;2.92;;;27.00;46.00;;;;;;5031196;28;20419;-77
2023/07/24 10:51:14;;;;;;;3.60;2.63;;;27.20;46.20;;;;;;5030981;28;20413;-77
2023/07/24 10:53:47;;;;;;;3.30;2.42;;;27.20;46.10;;;;;;5031068;28;20033;-77
2023/07/24 10:56:14;;;;;;;1.60;1.50;;;27.20;46.20;;;;;;5031319;28;20034;-77
2023/07/24 10:58:40;;;;;;;1.50;1.40;;;27.10;46.30;;;;;;5031435;28;20053;-77
2023/07/24 11:01:09;;;;;;;4.20;2.78;;;27.20;46.30;;;;;;5030961;28;20044;-77
2023/07/24 11:03:40;;;;;;;2.17;1.70;;;27.10;46.30;;;;;;5031064;28;20053;-77
2023/07/24 11:06:15;;;;;;;3.08;2.60;;;27.10;46.30;;;;;;5030899;28;20458;-77
2023/07/24 11:08:41;;;;;;;3.13;2.65;;;27.10;46.20;;;;;;5031193;28;20057;-77
2023/07/24 11:11:08;;;;;;;2.28;1.88;;;27.30;46.00;;;;;;5030850;28;20089;-77
2023/07/24 11:13:34;;;;;;;1.60;1.40;;;27.20;46.10;;;;;;5031270;28;20076;-77
2023/07/24 11:16:05;;;;;;;2.67;2.13;;;27.10;46.10;;;;;;5030989;28;20021;-77
2023/07/24 11:18:31;;;;;;;2.22;1.73;;;27.10;46.20;;;;;;5032113;28;20119;-78
2023/07/24 11:20:57;;;;;;;1.65;1.52;;;27.20;46.40;;;;;;5034835;28;20450;-77
2023/07/24 11:23:24;;;;;;;3.35;2.30;;;27.00;46.40;;;;;;5035000;28;20042;-77
2023/07/24 11:25:51;;;;;;;7.10;2.45;;;27.10;46.50;;;;;;5033959;28;20025;-77
2023/07/24 11:28:17;;;;;;;4.00;2.53;;;27.00;46.50;;;;;;5033551;28;20029;-77
2023/07/24 11:30:43;;;;;;;1.73;1.52;;;27.10;46.50;;;;;;5034619;28;20069;-77
2023/07/24 11:33:12;;;;;;;1.70;1.60;;;26.90;46.10;;;;;;5034443;28;20088;-77
2023/07/24 11:35:40;;;;;;;1.73;1.63;;;26.90;46.10;;;;;;5032520;28;20042;-76
2023/07/24 11:38:09;;;;;;;1.40;1.30;;;27.00;46.40;;;;;;5034630;28;20034;-77
2023/07/24 11:40:37;;;;;;;1.67;1.15;;;26.90;45.60;;;;;;5034785;28;20037;-76
2023/07/24 11:43:03;;;;;;;1.83;1.40;;;26.90;45.30;;;;;;5049796;28;20097;-77
2023/07/24 11:45:42;;;;;;;1.58;1.27;;;26.90;45.30;;;;;;5034722;28;20076;-77
2023/07/24 11:48:12;;;;;;;1.75;1.63;;;27.00;45.50;;;;;;5034560;28;20124;-77
2023/07/24 11:50:49;;;;;;;4.28;3.20;;;26.90;44.60;;;;;;5034747;28;20069;-77
2023/07/24 11:53:23;;;;;;;4.25;2.78;;;26.80;44.50;;;;;;5031704;28;20539;-77
2023/07/24 11:55:51;;;;;;;2.08;1.88;;;27.00;44.80;;;;;;5031892;28;20049;-76
2023/07/24 11:58:18;;;;;;;1.40;1.30;;;27.00;44.90;;;;;;5031729;28;20465;-76
2023/07/24 12:00:46;;;;;;;4.82;2.90;;;26.80;43.80;;;;;;5031747;28;20037;-77
2023/07/24 12:03:13;;;;;;;5.25;2.80;;;26.90;43.90;;;;;;5031645;28;20026;-76
2023/07/24 12:05:43;;;;;;;4.13;2.90;;;26.90;44.00;;;;;;5051373;28;20037;-77
2023/07/24 12:08:10;;;;;;;4.68;2.85;;;26.90;43.60;;;;;;5051398;28;20049;-77
2023/07/24 12:10:40;;;;;;;1.95;1.70;;;26.90;43.30;;;;;;5051324;28;20115;-76
2023/07/24 12:13:06;;;;;;;1.42;1.33;;;26.90;43.20;;;;;;5051287;28;20044;-77
2023/07/24 12:15:34;;;;;;;4.32;2.28;;;27.00;43.60;;;;;;5051019;28;20156;-77
2023/07/24 12:18:00;;;;;;;3.42;2.53;;;27.00;43.10;;;;;;5050187;28;20051;-76
2023/07/24 12:20:27;;;;;;;5.68;2.38;;;27.00;42.50;;;;;;5051384;28;20140;-77
2023/07/24 12:22:53;;;;;;;3.70;2.10;;;26.90;42.30;;;;;;5051260;28;20037;-77
2023/07/24 12:25:20;;;;;;;3.97;2.65;;;27.00;42.50;;;;;;5050908;28;20475;-77
2023/07/24 12:27:47;;;;;;;2.25;1.70;;;27.00;42.30;;;;;;5051085;28;20393;-77
2023/07/24 12:30:13;;;;;;;1.55;1.45;;;27.00;42.20;;;;;;5050311;28;20053;-77
2023/07/24 12:32:39;;;;;;;2.30;1.40;;;27.10;42.10;;;;;;5051031;28;20075;-77
2023/07/24 12:35:07;;;;;;;1.20;1.20;;;27.10;41.90;;;;;;5033888;28;20049;-76
2023/07/24 12:37:33;;;;;;;1.73;1.52;;;27.10;41.80;;;;;;5033611;28;20072;-77
2023/07/24 12:39:58;;;;;;;2.83;2.38;;;27.20;41.60;;;;;;5030847;28;20063;-76
2023/07/24 12:42:25;;;;;;;3.92;2.35;;;27.20;41.30;;;;;;5030823;28;20116;-76
2023/07/24 12:44:51;;;;;;;4.47;2.67;;;27.20;41.10;;;;;;5030765;28;20203;-76